sensor_id;sensor_type;location;lat;lon;timestamp;temperature;humidity
16273;DHT22;8244;50.044;9.006;2023-05-10T05:30:56;13.90;99.90
16273;DHT22;8244;50.044;9.006;2023-05-10T05:36:00;13.80;99.90
16273;DHT22;8244;50.044;9.006;2023-05-10T05:46:08;13.90;99.90
16273;DHT22;8244;50.044;9.006;2023-05-10T05:51:10;13.90;99.90
16273;DHT22;8244;50.044;9.006;2023-05-10T05:56:13;14.00;99.90
16273;DHT22;8244;50.044;9.006;2023-05-10T06:01:19;14.10;99.90
16273;DHT22;8244;50.044;9.006;2023-05-10T06:06:22;14.20;99.90
16273;DHT22;8244;50.044;9.006;2023-05-10T06:11:24;14.30;99.90
16273;DHT22;8244;50.044;9.006;2023-05-10T06:16:28;14.40;99.90
16273;DHT22;8244;50.044;9.006;2023-05-10T06:21:30;14.50;99.90
16273;DHT22;8244;50.044;9.006;2023-05-10T06:26:32;14.50;99.90
16273;DHT22;8244;50.044;9.006;2023-05-10T06:31:36;14.70;99.90
16273;DHT22;8244;50.044;9.006;2023-05-10T06:36:37;14.80;99.90
16273;DHT22;8244;50.044;9.006;2023-05-10T06:41:40;14.90;99.90
16273;DHT22;8244;50.044;9.006;2023-05-10T06:46:44;15.00;99.90
16273;DHT22;8244;50.044;9.006;2023-05-10T06:51:46;15.10;99.90
16273;DHT22;8244;50.044;9.006;2023-05-10T06:56:49;15.10;99.90
16273;DHT22;8244;50.044;9.006;2023-05-10T07:01:52;15.20;99.90
16273;DHT22;8244;50.044;9.006;2023-05-10T07:06:54;15.30;99.90
16273;DHT22;8244;50.044;9.006;2023-05-10T07:11:57;15.40;99.90
16273;DHT22;8244;50.044;9.006;2023-05-10T07:17:01;15.20;99.90
16273;DHT22;8244;50.044;9.006;2023-05-10T07:22:09;15.30;99.90
16273;DHT22;8244;50.044;9.006;2023-05-10T07:27:12;15.40;99.90
16273;DHT22;8244;50.044;9.006;2023-05-10T07:32:16;15.60;99.90
16273;DHT22;8244;50.044;9.006;2023-05-10T07:37:20;15.60;99.90
16273;DHT22;8244;50.044;9.006;2023-05-10T07:42:22;15.80;99.90
16273;DHT22;8244;50.044;9.006;2023-05-10T07:47:33;15.90;99.90
16273;DHT22;8244;50.044;9.006;2023-05-10T07:52:36;16.10;99.90
16273;DHT22;8244;50.044;9.006;2023-05-10T07:57:44;16.40;99.90
16273;DHT22;8244;50.044;9.006;2023-05-10T08:02:48;16.40;99.90
16273;DHT22;8244;50.044;9.006;2023-05-10T08:07:51;16.60;99.90
16273;DHT22;8244;50.044;9.006;2023-05-10T08:12:53;16.70;99.90
16273;DHT22;8244;50.044;9.006;2023-05-10T08:17:57;16.70;99.90
16273;DHT22;8244;50.044;9.006;2023-05-10T08:22:59;16.90;99.90
16273;DHT22;8244;50.044;9.006;2023-05-10T08:28:05;17.10;99.90
16273;DHT22;8244;50.044;9.006;2023-05-10T08:33:09;17.30;99.90
16273;DHT22;8244;50.044;9.006;2023-05-10T08:38:12;17.50;99.90
16273;DHT22;8244;50.044;9.006;2023-05-10T08:43:16;17.50;99.90
16273;DHT22;8244;50.044;9.006;2023-05-10T08:53:20;18.10;99.90
16273;DHT22;8244;50.044;9.006;2023-05-10T08:58:22;18.40;99.90
16273;DHT22;8244;50.044;9.006;2023-05-10T09:03:24;18.40;99.90
16273;DHT22;8244;50.044;9.006;2023-05-10T09:08:28;18.80;99.90
16273;DHT22;8244;50.044;9.006;2023-05-10T09:13:32;19.10;99.90
16273;DHT22;8244;50.044;9.006;2023-05-10T09:18:34;19.20;99.90
16273;DHT22;8244;50.044;9.006;2023-05-10T09:23:37;19.40;99.90
16273;DHT22;8244;50.044;9.006;2023-05-10T09:28:51;19.60;99.90
16273;DHT22;8244;50.044;9.006;2023-05-10T09:33:53;19.50;99.90
16273;DHT22;8244;50.044;9.006;2023-05-10T09:38:56;19.90;99.90
16273;DHT22;8244;50.044;9.006;2023-05-10T09:43:58;20.30;99.90
16273;DHT22;8244;50.044;9.006;2023-05-10T09:49:00;20.50;99.90
16273;DHT22;8244;50.044;9.006;2023-05-10T09:54:13;20.80;99.90
16273;DHT22;8244;50.044;9.006;2023-05-10T09:59:15;21.00;99.90
16273;DHT22;8244;50.044;9.006;2023-05-10T10:04:17;21.20;99.90
16273;DHT22;8244;50.044;9.006;2023-05-10T10:09:22;21.00;99.90
16273;DHT22;8244;50.044;9.006;2023-05-10T10:14:24;21.20;99.90
16273;DHT22;8244;50.044;9.006;2023-05-10T10:19:26;21.50;99.90
16273;DHT22;8244;50.044;9.006;2023-05-10T10:24:29;22.00;99.90
16273;DHT22;8244;50.044;9.006;2023-05-10T10:29:36;22.30;99.90
16273;DHT22;8244;50.044;9.006;2023-05-10T10:34:40;22.40;99.90
16273;DHT22;8244;50.044;9.006;2023-05-10T10:39:44;22.50;99.90
16273;DHT22;8244;50.044;9.006;2023-05-10T10:44:45;22.70;99.90
16273;DHT22;8244;50.044;9.006;2023-05-10T10:49:49;21.90;99.90
16273;DHT22;8244;50.044;9.006;2023-05-10T10:54:57;21.90;99.90
16273;DHT22;8244;50.044;9.006;2023-05-10T11:00:19;21.50;99.90
16273;DHT22;8244;50.044;9.006;2023-05-10T11:05:45;21.00;99.90
16273;DHT22;8244;50.044;9.006;2023-05-10T11:11:06;20.40;99.90
16273;DHT22;8244;50.044;9.006;2023-05-10T11:16:16;19.90;99.90
16273;DHT22;8244;50.044;9.006;2023-05-10T11:21:18;19.80;99.90
16273;DHT22;8244;50.044;9.006;2023-05-10T11:26:21;20.10;99.90
16273;DHT22;8244;50.044;9.006;2023-05-10T11:31:25;20.60;99.90
16273;DHT22;8244;50.044;9.006;2023-05-10T11:36:29;20.90;99.90
16273;DHT22;8244;50.044;9.006;2023-05-10T11:41:32;20.80;99.90
16273;DHT22;8244;50.044;9.006;2023-05-10T11:46:34;20.60;99.90
16273;DHT22;8244;50.044;9.006;2023-05-10T11:51:37;20.70;99.90
16273;DHT22;8244;50.044;9.006;2023-05-10T11:56:41;20.20;99.90
16273;DHT22;8244;50.044;9.006;2023-05-10T12:01:42;19.80;99.90
16273;DHT22;8244;50.044;9.006;2023-05-10T12:06:44;19.80;99.90
16273;DHT22;8244;50.044;9.006;2023-05-10T12:11:48;19.50;99.90
16273;DHT22;8244;50.044;9.006;2023-05-10T12:16:49;19.60;99.90
16273;DHT22;8244;50.044;9.006;2023-05-10T12:21:51;19.60;99.90
16273;DHT22;8244;50.044;9.006;2023-05-10T12:26:54;19.70;99.90
16273;DHT22;8244;50.044;9.006;2023-05-10T12:31:58;19.60;99.90
16273;DHT22;8244;50.044;9.006;2023-05-10T12:37:00;19.70;99.90
16273;DHT22;8244;50.044;9.006;2023-05-10T12:42:04;20.10;99.90
16273;DHT22;8244;50.044;9.006;2023-05-10T12:47:06;20.30;99.90
16273;DHT22;8244;50.044;9.006;2023-05-10T12:52:08;20.70;99.90
16273;DHT22;8244;50.044;9.006;2023-05-10T12:57:12;21.30;99.90
16273;DHT22;8244;50.044;9.006;2023-05-10T13:02:14;21.80;99.90
16273;DHT22;8244;50.044;9.006;2023-05-10T13:07:18;22.20;99.90
16273;DHT22;8244;50.044;9.006;2023-05-10T13:12:21;22.50;99.90
16273;DHT22;8244;50.044;9.006;2023-05-10T13:17:23;22.80;99.90
16273;DHT22;8244;50.044;9.006;2023-05-10T13:22:24;22.80;99.30
16273;DHT22;8244;50.044;9.006;2023-05-10T13:27:27;23.10;99.40
16273;DHT22;8244;50.044;9.006;2023-05-10T13:32:29;23.20;97.10
16273;DHT22;8244;50.044;9.006;2023-05-10T13:37:31;23.00;95.80
16273;DHT22;8244;50.044;9.006;2023-05-10T13:42:37;23.00;96.60
16273;DHT22;8244;50.044;9.006;2023-05-10T13:47:38;23.40;96.70
16273;DHT22;8244;50.044;9.006;2023-05-10T13:52:40;23.60;94.00
16273;DHT22;8244;50.044;9.006;2023-05-10T13:57:43;23.20;94.20
16273;DHT22;8244;50.044;9.006;2023-05-10T14:02:45;23.40;93.50
16273;DHT22;8244;50.044;9.006;2023-05-10T14:07:46;23.50;92.00
16273;DHT22;8244;50.044;9.006;2023-05-10T14:12:49;23.50;91.60
16273;DHT22;8244;50.044;9.006;2023-05-10T14:17:51;23.20;93.10
16273;DHT22;8244;50.044;9.006;2023-05-10T14:22:53;23.10;92.40
16273;DHT22;8244;50.044;9.006;2023-05-10T14:27:56;23.00;91.40
16273;DHT22;8244;50.044;9.006;2023-05-10T14:32:57;22.70;92.50
16273;DHT22;8244;50.044;9.006;2023-05-10T14:38:02;22.50;91.70
16273;DHT22;8244;50.044;9.006;2023-05-10T14:43:05;22.50;94.20
16273;DHT22;8244;50.044;9.006;2023-05-10T14:48:06;22.70;91.60
16273;DHT22;8244;50.044;9.006;2023-05-10T14:53:12;22.80;91.30
16273;DHT22;8244;50.044;9.006;2023-05-10T14:58:15;22.70;91.60
16273;DHT22;8244;50.044;9.006;2023-05-10T15:03:17;22.60;91.30
16273;DHT22;8244;50.044;9.006;2023-05-10T15:08:19;22.90;91.40
16273;DHT22;8244;50.044;9.006;2023-05-10T15:13:22;23.10;90.50
16273;DHT22;8244;50.044;9.006;2023-05-10T15:18:24;23.40;90.10
16273;DHT22;8244;50.044;9.006;2023-05-10T15:23:26;23.40;90.50
16273;DHT22;8244;50.044;9.006;2023-05-10T15:28:30;23.30;90.50
16273;DHT22;8244;50.044;9.006;2023-05-10T15:33:32;23.40;90.80
16273;DHT22;8244;50.044;9.006;2023-05-10T15:38:34;23.30;90.20
16273;DHT22;8244;50.044;9.006;2023-05-10T15:43:38;23.00;90.00
16273;DHT22;8244;50.044;9.006;2023-05-10T15:48:40;22.30;91.60
16273;DHT22;8244;50.044;9.006;2023-05-10T15:53:42;22.20;91.50
16273;DHT22;8244;50.044;9.006;2023-05-10T15:58:45;22.00;92.10
16273;DHT22;8244;50.044;9.006;2023-05-10T16:03:47;21.70;92.80
16273;DHT22;8244;50.044;9.006;2023-05-10T16:08:48;21.60;92.30
16273;DHT22;8244;50.044;9.006;2023-05-10T16:13:51;21.50;93.40
16273;DHT22;8244;50.044;9.006;2023-05-10T16:18:53;21.70;93.40
16273;DHT22;8244;50.044;9.006;2023-05-10T16:23:55;21.70;92.70
16273;DHT22;8244;50.044;9.006;2023-05-10T16:28:58;21.70;93.30
16273;DHT22;8244;50.044;9.006;2023-05-10T16:34:00;21.70;93.00
16273;DHT22;8244;50.044;9.006;2023-05-10T16:39:01;21.70;92.90
16273;DHT22;8244;50.044;9.006;2023-05-10T16:44:04;21.60;93.30
16273;DHT22;8244;50.044;9.006;2023-05-10T16:49:06;21.30;94.00
16273;DHT22;8244;50.044;9.006;2023-05-10T16:54:08;21.40;94.70
16273;DHT22;8244;50.044;9.006;2023-05-10T16:59:11;21.50;94.60
16273;DHT22;8244;50.044;9.006;2023-05-10T17:04:13;21.50;94.30
16273;DHT22;8244;50.044;9.006;2023-05-10T17:09:15;21.50;93.50
16273;DHT22;8244;50.044;9.006;2023-05-10T17:14:18;21.20;94.10
16273;DHT22;8244;50.044;9.006;2023-05-10T17:19:20;20.90;92.70
16273;DHT22;8244;50.044;9.006;2023-05-10T17:24:22;20.60;93.00
16273;DHT22;8244;50.044;9.006;2023-05-10T17:29:25;20.50;92.90
16273;DHT22;8244;50.044;9.006;2023-05-10T17:34:27;20.50;94.20
16273;DHT22;8244;50.044;9.006;2023-05-10T17:39:29;20.50;93.70
16273;DHT22;8244;50.044;9.006;2023-05-10T17:44:32;20.50;93.70
16273;DHT22;8244;50.044;9.006;2023-05-10T17:49:34;20.50;93.70
16273;DHT22;8244;50.044;9.006;2023-05-10T17:54:35;20.40;93.90
16273;DHT22;8244;50.044;9.006;2023-05-10T17:59:39;20.30;94.40
16273;DHT22;8244;50.044;9.006;2023-05-10T18:04:40;20.30;94.30
16273;DHT22;8244;50.044;9.006;2023-05-10T18:09:42;20.10;94.90
16273;DHT22;8244;50.044;9.006;2023-05-10T18:14:45;19.80;94.50
16273;DHT22;8244;50.044;9.006;2023-05-10T18:19:47;19.70;94.80
16273;DHT22;8244;50.044;9.006;2023-05-10T18:24:48;19.40;94.80
16273;DHT22;8244;50.044;9.006;2023-05-10T18:29:51;19.20;95.60
16273;DHT22;8244;50.044;9.006;2023-05-10T18:34:53;18.90;95.30
16273;DHT22;8244;50.044;9.006;2023-05-10T18:39:56;18.80;95.80
16273;DHT22;8244;50.044;9.006;2023-05-10T18:44:59;18.70;96.20
16273;DHT22;8244;50.044;9.006;2023-05-10T18:50:02;18.50;96.50
16273;DHT22;8244;50.044;9.006;2023-05-10T18:55:04;18.20;96.80
16273;DHT22;8244;50.044;9.006;2023-05-10T19:00:09;18.00;97.50
16273;DHT22;8244;50.044;9.006;2023-05-10T19:05:12;17.80;98.70
16273;DHT22;8244;50.044;9.006;2023-05-10T19:10:14;17.50;99.90
16273;DHT22;8244;50.044;9.006;2023-05-10T19:15:17;17.30;99.90
16273;DHT22;8244;50.044;9.006;2023-05-10T19:20:19;17.10;99.90
16273;DHT22;8244;50.044;9.006;2023-05-10T19:25:21;16.90;99.90
16273;DHT22;8244;50.044;9.006;2023-05-10T19:30:29;16.70;99.90
16273;DHT22;8244;50.044;9.006;2023-05-10T19:35:31;16.40;99.90
16273;DHT22;8244;50.044;9.006;2023-05-10T19:40:33;16.30;99.90
16273;DHT22;8244;50.044;9.006;2023-05-10T19:45:37;16.00;99.90
16273;DHT22;8244;50.044;9.006;2023-05-10T19:50:38;15.80;99.90
16273;DHT22;8244;50.044;9.006;2023-05-10T19:55:40;15.60;99.90
16273;DHT22;8244;50.044;9.006;2023-05-10T20:00:43;15.50;99.90
16273;DHT22;8244;50.044;9.006;2023-05-10T20:05:45;15.30;99.90
16273;DHT22;8244;50.044;9.006;2023-05-10T20:10:46;15.10;99.90
16273;DHT22;8244;50.044;9.006;2023-05-10T20:15:53;15.00;99.90
16273;DHT22;8244;50.044;9.006;2023-05-10T20:20:58;14.90;99.90
16273;DHT22;8244;50.044;9.006;2023-05-10T20:26:00;14.70;99.90
16273;DHT22;8244;50.044;9.006;2023-05-10T20:31:03;14.60;99.90
16273;DHT22;8244;50.044;9.006;2023-05-10T20:36:05;14.50;99.90
16273;DHT22;8244;50.044;9.006;2023-05-10T20:41:08;14.40;99.90
16273;DHT22;8244;50.044;9.006;2023-05-10T20:46:11;14.30;99.90
16273;DHT22;8244;50.044;9.006;2023-05-10T20:51:13;14.20;99.90
16273;DHT22;8244;50.044;9.006;2023-05-10T20:56:15;14.10;99.90
16273;DHT22;8244;50.044;9.006;2023-05-10T21:01:18;14.00;99.90
16273;DHT22;8244;50.044;9.006;2023-05-10T21:06:20;13.90;99.90
16273;DHT22;8244;50.044;9.006;2023-05-10T21:11:22;13.90;99.90
16273;DHT22;8244;50.044;9.006;2023-05-10T21:16:25;13.80;99.90
16273;DHT22;8244;50.044;9.006;2023-05-10T21:21:26;13.80;99.90
16273;DHT22;8244;50.044;9.006;2023-05-10T21:26:28;13.90;99.90
16273;DHT22;8244;50.044;9.006;2023-05-10T21:31:32;13.90;99.90
16273;DHT22;8244;50.044;9.006;2023-05-10T21:36:33;13.80;99.90
16273;DHT22;8244;50.044;9.006;2023-05-10T21:41:35;13.80;99.90
16273;DHT22;8244;50.044;9.006;2023-05-10T21:46:38;13.70;99.90
16273;DHT22;8244;50.044;9.006;2023-05-10T21:51:40;13.60;99.90
16273;DHT22;8244;50.044;9.006;2023-05-10T21:56:41;13.50;99.90
16273;DHT22;8244;50.044;9.006;2023-05-10T22:01:44;13.50;99.90
16273;DHT22;8244;50.044;9.006;2023-05-10T22:06:46;13.30;99.90
16273;DHT22;8244;50.044;9.006;2023-05-10T22:11:48;13.20;99.90
16273;DHT22;8244;50.044;9.006;2023-05-10T22:16:51;13.10;99.90
16273;DHT22;8244;50.044;9.006;2023-05-10T22:21:53;13.00;99.90
16273;DHT22;8244;50.044;9.006;2023-05-10T22:26:54;12.90;99.90
16273;DHT22;8244;50.044;9.006;2023-05-10T22:31:57;12.80;99.90
16273;DHT22;8244;50.044;9.006;2023-05-10T22:37:04;12.80;99.90
16273;DHT22;8244;50.044;9.006;2023-05-10T22:42:06;12.70;99.90
16273;DHT22;8244;50.044;9.006;2023-05-10T22:47:09;12.60;99.90
16273;DHT22;8244;50.044;9.006;2023-05-10T22:52:10;12.50;99.90
16273;DHT22;8244;50.044;9.006;2023-05-10T22:57:12;12.50;99.90
16273;DHT22;8244;50.044;9.006;2023-05-10T23:02:15;12.40;99.90
16273;DHT22;8244;50.044;9.006;2023-05-10T23:07:17;12.30;99.90
16273;DHT22;8244;50.044;9.006;2023-05-10T23:12:19;12.30;99.90
16273;DHT22;8244;50.044;9.006;2023-05-10T23:17:22;12.20;99.90
16273;DHT22;8244;50.044;9.006;2023-05-10T23:22:23;12.20;99.90
16273;DHT22;8244;50.044;9.006;2023-05-10T23:27:27;12.10;99.90
16273;DHT22;8244;50.044;9.006;2023-05-10T23:32:30;12.10;99.90
16273;DHT22;8244;50.044;9.006;2023-05-10T23:37:32;12.00;99.90
16273;DHT22;8244;50.044;9.006;2023-05-10T23:42:34;11.90;99.90
16273;DHT22;8244;50.044;9.006;2023-05-10T23:47:37;11.90;99.90
16273;DHT22;8244;50.044;9.006;2023-05-10T23:52:38;11.80;99.90
16273;DHT22;8244;50.044;9.006;2023-05-10T23:57:40;11.70;99.90
